sensor_id;sensor_type;location;lat;lon;timestamp;pressure;altitude;pressure_sealevel;temperature;humidity
17054;BME280;8643;48.824;11.422;2023-04-27T00:02:04;97035.47;;;4.83;100.00
17054;BME280;8643;48.824;11.422;2023-04-27T00:04:33;97034.25;;;4.89;100.00
17054;BME280;8643;48.824;11.422;2023-04-27T00:07:01;97046.44;;;4.91;100.00
17054;BME280;8643;48.824;11.422;2023-04-27T00:09:30;97044.25;;;4.93;98.36
17054;BME280;8643;48.824;11.422;2023-04-27T00:12:00;97037.16;;;4.98;99.91
17054;BME280;8643;48.824;11.422;2023-04-27T00:14:28;97036.03;;;4.99;100.00
17054;BME280;8643;48.824;11.422;2023-04-27T00:16:57;97038.25;;;4.96;98.78
17054;BME280;8643;48.824;11.422;2023-04-27T00:19:26;97039.41;;;4.90;97.62
17054;BME280;8643;48.824;11.422;2023-04-27T00:21:54;97044.81;;;4.90;98.88
17054;BME280;8643;48.824;11.422;2023-04-27T00:24:24;97035.88;;;4.90;98.77
17054;BME280;8643;48.824;11.422;2023-04-27T00:26:53;97038.91;;;4.88;100.00
17054;BME280;8643;48.824;11.422;2023-04-27T00:29:24;97041.03;;;4.91;100.00
17054;BME280;8643;48.824;11.422;2023-04-27T00:31:52;97033.03;;;5.00;100.00
17054;BME280;8643;48.824;11.422;2023-04-27T00:34:22;97025.34;;;5.07;100.00
17054;BME280;8643;48.824;11.422;2023-04-27T00:36:50;97040.59;;;5.03;100.00
17054;BME280;8643;48.824;11.422;2023-04-27T00:39:19;97024.88;;;5.00;100.00
17054;BME280;8643;48.824;11.422;2023-04-27T00:41:48;97031.22;;;4.95;100.00
17054;BME280;8643;48.824;11.422;2023-04-27T00:44:23;97028.69;;;4.80;100.00
17054;BME280;8643;48.824;11.422;2023-04-27T00:46:53;97018.41;;;4.58;100.00
17054;BME280;8643;48.824;11.422;2023-04-27T00:49:23;97015.59;;;4.44;100.00
17054;BME280;8643;48.824;11.422;2023-04-27T00:51:54;97021.88;;;4.39;100.00
17054;BME280;8643;48.824;11.422;2023-04-27T00:54:23;97017.50;;;4.44;100.00
17054;BME280;8643;48.824;11.422;2023-04-27T00:56:52;97015.81;;;4.48;100.00
17054;BME280;8643;48.824;11.422;2023-04-27T00:59:21;97013.88;;;4.53;100.00
17054;BME280;8643;48.824;11.422;2023-04-27T01:01:52;97016.00;;;4.56;100.00
17054;BME280;8643;48.824;11.422;2023-04-27T01:04:22;97013.78;;;4.58;100.00
17054;BME280;8643;48.824;11.422;2023-04-27T01:06:53;97013.00;;;4.58;100.00
17054;BME280;8643;48.824;11.422;2023-04-27T01:09:22;97009.75;;;4.56;100.00
17054;BME280;8643;48.824;11.422;2023-04-27T01:11:51;97014.38;;;4.55;100.00
17054;BME280;8643;48.824;11.422;2023-04-27T01:14:20;97011.50;;;4.47;100.00
17054;BME280;8643;48.824;11.422;2023-04-27T01:16:52;97016.41;;;4.45;100.00
17054;BME280;8643;48.824;11.422;2023-04-27T01:19:21;97013.75;;;4.39;100.00
17054;BME280;8643;48.824;11.422;2023-04-27T01:21:50;97011.47;;;4.28;100.00
17054;BME280;8643;48.824;11.422;2023-04-27T01:24:20;97009.25;;;4.30;100.00
17054;BME280;8643;48.824;11.422;2023-04-27T01:26:48;97008.16;;;4.31;100.00
17054;BME280;8643;48.824;11.422;2023-04-27T01:29:19;97015.44;;;4.35;100.00
17054;BME280;8643;48.824;11.422;2023-04-27T01:31:48;97005.75;;;4.29;100.00
17054;BME280;8643;48.824;11.422;2023-04-27T01:34:17;97003.97;;;4.19;100.00
17054;BME280;8643;48.824;11.422;2023-04-27T01:36:47;97004.47;;;4.21;100.00
17054;BME280;8643;48.824;11.422;2023-04-27T01:39:15;97008.59;;;4.19;100.00
17054;BME280;8643;48.824;11.422;2023-04-27T01:41:45;96999.41;;;4.15;100.00
17054;BME280;8643;48.824;11.422;2023-04-27T01:44:14;97001.69;;;4.27;100.00
17054;BME280;8643;48.824;11.422;2023-04-27T01:46:43;97001.63;;;4.32;100.00
17054;BME280;8643;48.824;11.422;2023-04-27T01:49:12;97009.81;;;4.27;100.00
17054;BME280;8643;48.824;11.422;2023-04-27T01:51:42;97006.16;;;4.17;100.00
17054;BME280;8643;48.824;11.422;2023-04-27T01:54:10;97005.34;;;4.17;100.00
17054;BME280;8643;48.824;11.422;2023-04-27T01:56:39;97006.97;;;4.18;100.00
17054;BME280;8643;48.824;11.422;2023-04-27T01:59:09;97016.47;;;4.15;100.00
17054;BME280;8643;48.824;11.422;2023-04-27T02:01:38;97015.16;;;4.13;100.00
17054;BME280;8643;48.824;11.422;2023-04-27T02:04:07;97016.59;;;4.05;100.00
17054;BME280;8643;48.824;11.422;2023-04-27T02:06:36;97016.66;;;4.00;100.00
17054;BME280;8643;48.824;11.422;2023-04-27T02:09:06;97014.50;;;3.97;100.00
17054;BME280;8643;48.824;11.422;2023-04-27T02:11:34;97017.59;;;3.85;100.00
17054;BME280;8643;48.824;11.422;2023-04-27T02:14:03;97015.53;;;3.77;100.00
17054;BME280;8643;48.824;11.422;2023-04-27T02:16:33;97015.03;;;3.70;100.00
17054;BME280;8643;48.824;11.422;2023-04-27T02:19:01;97012.25;;;3.51;100.00
17054;BME280;8643;48.824;11.422;2023-04-27T02:21:30;97016.59;;;3.46;100.00
17054;BME280;8643;48.824;11.422;2023-04-27T02:23:59;97011.97;;;3.47;100.00
17054;BME280;8643;48.824;11.422;2023-04-27T02:26:28;97015.75;;;3.51;100.00
17054;BME280;8643;48.824;11.422;2023-04-27T02:28:57;97019.22;;;3.57;100.00
17054;BME280;8643;48.824;11.422;2023-04-27T02:31:26;97023.09;;;3.45;100.00
17054;BME280;8643;48.824;11.422;2023-04-27T02:33:56;97017.72;;;3.40;100.00
17054;BME280;8643;48.824;11.422;2023-04-27T02:36:27;97020.75;;;3.34;100.00
17054;BME280;8643;48.824;11.422;2023-04-27T02:38:56;97021.31;;;3.30;100.00
17054;BME280;8643;48.824;11.422;2023-04-27T02:41:25;97017.34;;;3.18;100.00
17054;BME280;8643;48.824;11.422;2023-04-27T02:43:55;97015.38;;;2.94;100.00
17054;BME280;8643;48.824;11.422;2023-04-27T02:46:24;97014.31;;;2.85;100.00
17054;BME280;8643;48.824;11.422;2023-04-27T02:48:56;97016.06;;;2.65;100.00
17054;BME280;8643;48.824;11.422;2023-04-27T02:51:24;97018.03;;;2.54;100.00
17054;BME280;8643;48.824;11.422;2023-04-27T02:53:54;97022.09;;;2.47;100.00
17054;BME280;8643;48.824;11.422;2023-04-27T02:56:22;97019.44;;;2.42;100.00
17054;BME280;8643;48.824;11.422;2023-04-27T02:58:51;97017.56;;;2.37;100.00
17054;BME280;8643;48.824;11.422;2023-04-27T03:01:20;97018.91;;;2.34;100.00
17054;BME280;8643;48.824;11.422;2023-04-27T03:03:49;97007.59;;;2.27;100.00
17054;BME280;8643;48.824;11.422;2023-04-27T03:06:19;97017.31;;;2.23;100.00
17054;BME280;8643;48.824;11.422;2023-04-27T03:08:47;97016.56;;;2.12;100.00
17054;BME280;8643;48.824;11.422;2023-04-27T03:11:16;97026.03;;;2.05;100.00
17054;BME280;8643;48.824;11.422;2023-04-27T03:13:45;97020.13;;;1.87;100.00
17054;BME280;8643;48.824;11.422;2023-04-27T03:16:13;97025.28;;;1.83;100.00
17054;BME280;8643;48.824;11.422;2023-04-27T03:18:42;97027.19;;;1.83;100.00
17054;BME280;8643;48.824;11.422;2023-04-27T03:21:12;97025.53;;;1.82;100.00
17054;BME280;8643;48.824;11.422;2023-04-27T03:23:42;97028.22;;;1.92;100.00
17054;BME280;8643;48.824;11.422;2023-04-27T03:26:12;97028.22;;;1.97;100.00
17054;BME280;8643;48.824;11.422;2023-04-27T03:28:41;97030.38;;;1.90;100.00
17054;BME280;8643;48.824;11.422;2023-04-27T03:31:13;97032.03;;;1.81;100.00
17054;BME280;8643;48.824;11.422;2023-04-27T03:33:42;97032.88;;;1.71;100.00
17054;BME280;8643;48.824;11.422;2023-04-27T03:36:11;97041.78;;;1.56;100.00
17054;BME280;8643;48.824;11.422;2023-04-27T03:38:42;97046.91;;;1.42;100.00
17054;BME280;8643;48.824;11.422;2023-04-27T03:41:11;97041.25;;;1.39;100.00
17054;BME280;8643;48.824;11.422;2023-04-27T03:43:40;97049.34;;;1.34;100.00
17054;BME280;8643;48.824;11.422;2023-04-27T03:46:09;97048.50;;;1.38;100.00
17054;BME280;8643;48.824;11.422;2023-04-27T03:48:38;97047.47;;;1.60;100.00
17054;BME280;8643;48.824;11.422;2023-04-27T03:51:08;97048.50;;;1.79;100.00
17054;BME280;8643;48.824;11.422;2023-04-27T03:53:37;97058.50;;;1.79;100.00
17054;BME280;8643;48.824;11.422;2023-04-27T03:56:08;97061.22;;;1.69;100.00
17054;BME280;8643;48.824;11.422;2023-04-27T03:58:37;97054.19;;;1.78;100.00
17054;BME280;8643;48.824;11.422;2023-04-27T04:01:15;97061.44;;;1.98;100.00
17054;BME280;8643;48.824;11.422;2023-04-27T04:03:48;97073.31;;;2.07;100.00
17054;BME280;8643;48.824;11.422;2023-04-27T04:06:18;97070.31;;;2.14;100.00
17054;BME280;8643;48.824;11.422;2023-04-27T04:08:47;97075.19;;;2.17;100.00
17054;BME280;8643;48.824;11.422;2023-04-27T04:11:17;97083.53;;;2.20;100.00
17054;BME280;8643;48.824;11.422;2023-04-27T04:13:46;97086.81;;;2.12;100.00
17054;BME280;8643;48.824;11.422;2023-04-27T04:16:15;97088.69;;;2.17;100.00
17054;BME280;8643;48.824;11.422;2023-04-27T04:18:44;97091.69;;;2.10;100.00
17054;BME280;8643;48.824;11.422;2023-04-27T04:21:13;97090.56;;;2.16;100.00
17054;BME280;8643;48.824;11.422;2023-04-27T04:23:42;97080.81;;;2.26;100.00
17054;BME280;8643;48.824;11.422;2023-04-27T04:26:10;97083.78;;;2.29;100.00
17054;BME280;8643;48.824;11.422;2023-04-27T04:28:42;97086.75;;;2.38;100.00
17054;BME280;8643;48.824;11.422;2023-04-27T04:31:11;97085.31;;;2.51;100.00
17054;BME280;8643;48.824;11.422;2023-04-27T04:33:44;97074.78;;;2.49;100.00
17054;BME280;8643;48.824;11.422;2023-04-27T04:36:14;97074.50;;;2.51;100.00
17054;BME280;8643;48.824;11.422;2023-04-27T04:38:43;97081.47;;;2.72;100.00
17054;BME280;8643;48.824;11.422;2023-04-27T04:41:12;97074.94;;;2.79;100.00
17054;BME280;8643;48.824;11.422;2023-04-27T04:43:42;97078.72;;;2.83;100.00
17054;BME280;8643;48.824;11.422;2023-04-27T04:46:10;97078.94;;;2.97;100.00
17054;BME280;8643;48.824;11.422;2023-04-27T04:48:39;97078.78;;;3.17;100.00
17054;BME280;8643;48.824;11.422;2023-04-27T04:51:08;97073.84;;;3.29;100.00
17054;BME280;8643;48.824;11.422;2023-04-27T04:53:36;97069.13;;;3.45;100.00
17054;BME280;8643;48.824;11.422;2023-04-27T04:56:09;97075.69;;;3.74;100.00
17054;BME280;8643;48.824;11.422;2023-04-27T04:58:38;97085.63;;;3.83;100.00
17054;BME280;8643;48.824;11.422;2023-04-27T05:01:08;97088.50;;;3.92;100.00
17054;BME280;8643;48.824;11.422;2023-04-27T05:03:37;97088.31;;;3.83;100.00
17054;BME280;8643;48.824;11.422;2023-04-27T05:06:06;97085.63;;;3.83;100.00
17054;BME280;8643;48.824;11.422;2023-04-27T05:08:36;97094.50;;;3.89;100.00
17054;BME280;8643;48.824;11.422;2023-04-27T05:11:04;97098.88;;;3.85;100.00
17054;BME280;8643;48.824;11.422;2023-04-27T05:13:33;97095.72;;;4.02;100.00
17054;BME280;8643;48.824;11.422;2023-04-27T05:16:03;97093.97;;;4.16;100.00
17054;BME280;8643;48.824;11.422;2023-04-27T05:18:34;97099.44;;;4.40;100.00
17054;BME280;8643;48.824;11.422;2023-04-27T05:21:03;97090.44;;;4.45;100.00
17054;BME280;8643;48.824;11.422;2023-04-27T05:23:32;97092.97;;;4.61;100.00
17054;BME280;8643;48.824;11.422;2023-04-27T05:26:04;97098.09;;;4.62;100.00
17054;BME280;8643;48.824;11.422;2023-04-27T05:28:38;97102.31;;;4.73;100.00
17054;BME280;8643;48.824;11.422;2023-04-27T05:31:06;97093.22;;;4.83;100.00
17054;BME280;8643;48.824;11.422;2023-04-27T05:33:36;97095.72;;;4.99;100.00
17054;BME280;8643;48.824;11.422;2023-04-27T05:36:05;97098.41;;;5.23;100.00
17054;BME280;8643;48.824;11.422;2023-04-27T05:38:34;97099.50;;;5.41;100.00
17054;BME280;8643;48.824;11.422;2023-04-27T05:41:06;97098.41;;;5.61;100.00
17054;BME280;8643;48.824;11.422;2023-04-27T05:43:35;97102.94;;;5.65;100.00
17054;BME280;8643;48.824;11.422;2023-04-27T05:46:05;97115.53;;;5.94;100.00
17054;BME280;8643;48.824;11.422;2023-04-27T05:48:35;97119.72;;;6.05;100.00
17054;BME280;8643;48.824;11.422;2023-04-27T05:51:04;97111.47;;;6.11;99.79
17054;BME280;8643;48.824;11.422;2023-04-27T05:53:33;97111.16;;;6.12;100.00
17054;BME280;8643;48.824;11.422;2023-04-27T05:56:03;97111.22;;;6.26;100.00
17054;BME280;8643;48.824;11.422;2023-04-27T05:58:33;97103.25;;;6.43;99.80
17054;BME280;8643;48.824;11.422;2023-04-27T06:01:01;97112.16;;;6.63;98.70
17054;BME280;8643;48.824;11.422;2023-04-27T06:03:30;97101.47;;;6.81;96.35
17054;BME280;8643;48.824;11.422;2023-04-27T06:06:00;97110.13;;;6.83;99.21
17054;BME280;8643;48.824;11.422;2023-04-27T06:08:29;97116.09;;;6.85;99.44
17054;BME280;8643;48.824;11.422;2023-04-27T06:10:58;97112.97;;;6.91;98.34
17054;BME280;8643;48.824;11.422;2023-04-27T06:13:26;97111.53;;;7.08;99.84
17054;BME280;8643;48.824;11.422;2023-04-27T06:15:55;97108.81;;;7.08;97.63
17054;BME280;8643;48.824;11.422;2023-04-27T06:18:24;97115.25;;;7.26;99.10
17054;BME280;8643;48.824;11.422;2023-04-27T06:20:57;97108.94;;;7.39;97.57
17054;BME280;8643;48.824;11.422;2023-04-27T06:23:27;97124.41;;;7.66;92.50
17054;BME280;8643;48.824;11.422;2023-04-27T06:25:56;97128.44;;;7.69;92.09
17054;BME280;8643;48.824;11.422;2023-04-27T06:28:24;97125.69;;;7.69;96.83
17054;BME280;8643;48.824;11.422;2023-04-27T06:30:53;97126.91;;;7.77;95.27
17054;BME280;8643;48.824;11.422;2023-04-27T06:33:22;97124.75;;;7.87;91.45
17054;BME280;8643;48.824;11.422;2023-04-27T06:35:51;97131.56;;;7.99;87.31
17054;BME280;8643;48.824;11.422;2023-04-27T06:38:19;97130.88;;;7.93;85.27
17054;BME280;8643;48.824;11.422;2023-04-27T06:40:54;97142.81;;;7.83;84.30
17054;BME280;8643;48.824;11.422;2023-04-27T06:43:23;97144.81;;;7.92;85.80
17054;BME280;8643;48.824;11.422;2023-04-27T06:45:52;97140.41;;;8.04;83.08
17054;BME280;8643;48.824;11.422;2023-04-27T06:48:21;97143.88;;;8.19;80.58
17054;BME280;8643;48.824;11.422;2023-04-27T06:50:49;97142.66;;;8.25;81.06
17054;BME280;8643;48.824;11.422;2023-04-27T06:53:18;97141.72;;;8.30;80.76
17054;BME280;8643;48.824;11.422;2023-04-27T06:55:47;97142.81;;;8.29;81.84
17054;BME280;8643;48.824;11.422;2023-04-27T06:58:18;97148.00;;;8.39;79.51
17054;BME280;8643;48.824;11.422;2023-04-27T07:00:46;97138.16;;;8.29;81.31
17054;BME280;8643;48.824;11.422;2023-04-27T07:03:15;97138.72;;;8.40;82.60
17054;BME280;8643;48.824;11.422;2023-04-27T07:05:44;97139.97;;;8.11;80.58
17054;BME280;8643;48.824;11.422;2023-04-27T07:08:14;97141.56;;;8.35;83.31
17054;BME280;8643;48.824;11.422;2023-04-27T07:10:42;97142.19;;;8.54;80.34
17054;BME280;8643;48.824;11.422;2023-04-27T07:13:11;97145.09;;;8.58;77.53
17054;BME280;8643;48.824;11.422;2023-04-27T07:15:42;97137.09;;;8.61;79.49
17054;BME280;8643;48.824;11.422;2023-04-27T07:18:10;97143.09;;;8.81;78.56
17054;BME280;8643;48.824;11.422;2023-04-27T07:20:40;97145.81;;;8.72;75.63
17054;BME280;8643;48.824;11.422;2023-04-27T07:23:09;97144.91;;;8.86;76.24
17054;BME280;8643;48.824;11.422;2023-04-27T07:25:37;97136.69;;;8.77;75.71
17054;BME280;8643;48.824;11.422;2023-04-27T07:28:06;97136.56;;;8.91;79.39
17054;BME280;8643;48.824;11.422;2023-04-27T07:30:35;97127.66;;;9.16;79.61
17054;BME280;8643;48.824;11.422;2023-04-27T07:33:05;97139.53;;;9.12;78.45
17054;BME280;8643;48.824;11.422;2023-04-27T07:35:34;97136.72;;;8.94;76.70
17054;BME280;8643;48.824;11.422;2023-04-27T07:38:03;97136.16;;;9.06;77.59
17054;BME280;8643;48.824;11.422;2023-04-27T07:40:31;97144.03;;;9.25;76.08
17054;BME280;8643;48.824;11.422;2023-04-27T07:43:00;97138.59;;;9.25;75.74
17054;BME280;8643;48.824;11.422;2023-04-27T07:45:30;97142.16;;;9.34;75.01
17054;BME280;8643;48.824;11.422;2023-04-27T07:48:00;97137.66;;;9.56;79.04
17054;BME280;8643;48.824;11.422;2023-04-27T07:50:31;97140.91;;;9.67;73.52
17054;BME280;8643;48.824;11.422;2023-04-27T07:52:59;97149.72;;;9.38;71.83
17054;BME280;8643;48.824;11.422;2023-04-27T07:55:28;97144.59;;;9.62;73.55
17054;BME280;8643;48.824;11.422;2023-04-27T07:57:57;97152.97;;;9.75;72.91
17054;BME280;8643;48.824;11.422;2023-04-27T08:00:26;97160.53;;;9.95;74.05
17054;BME280;8643;48.824;11.422;2023-04-27T08:02:55;97167.91;;;10.21;72.66
17054;BME280;8643;48.824;11.422;2023-04-27T08:05:24;97165.06;;;9.91;73.14
17054;BME280;8643;48.824;11.422;2023-04-27T08:07:54;97163.41;;;9.72;73.20
17054;BME280;8643;48.824;11.422;2023-04-27T08:10:24;97167.28;;;9.71;70.96
17054;BME280;8643;48.824;11.422;2023-04-27T08:12:52;97155.72;;;10.01;74.71
17054;BME280;8643;48.824;11.422;2023-04-27T08:15:21;97161.47;;;10.25;70.20
17054;BME280;8643;48.824;11.422;2023-04-27T08:17:50;97158.41;;;10.44;70.21
17054;BME280;8643;48.824;11.422;2023-04-27T08:20:19;97179.84;;;10.34;72.12
17054;BME280;8643;48.824;11.422;2023-04-27T08:22:50;97169.03;;;10.20;68.03
17054;BME280;8643;48.824;11.422;2023-04-27T08:25:20;97174.34;;;10.25;72.36
17054;BME280;8643;48.824;11.422;2023-04-27T08:27:49;97175.81;;;10.05;71.39
17054;BME280;8643;48.824;11.422;2023-04-27T08:30:18;97174.84;;;10.09;71.08
17054;BME280;8643;48.824;11.422;2023-04-27T08:32:47;97170.66;;;10.21;69.00
17054;BME280;8643;48.824;11.422;2023-04-27T08:35:16;97167.44;;;10.27;68.99
17054;BME280;8643;48.824;11.422;2023-04-27T08:37:44;97169.06;;;10.28;69.89
17054;BME280;8643;48.824;11.422;2023-04-27T08:40:14;97168.41;;;10.40;66.30
17054;BME280;8643;48.824;11.422;2023-04-27T08:42:54;97160.41;;;10.74;69.20
17054;BME280;8643;48.824;11.422;2023-04-27T08:45:24;97165.38;;;10.89;69.40
17054;BME280;8643;48.824;11.422;2023-04-27T08:47:53;97160.00;;;11.01;63.83
17054;BME280;8643;48.824;11.422;2023-04-27T08:50:23;97169.47;;;10.74;64.46
17054;BME280;8643;48.824;11.422;2023-04-27T08:52:52;97161.53;;;11.20;66.21
17054;BME280;8643;48.824;11.422;2023-04-27T08:55:21;97156.28;;;11.36;67.78
17054;BME280;8643;48.824;11.422;2023-04-27T08:57:55;97160.72;;;12.00;64.42
17054;BME280;8643;48.824;11.422;2023-04-27T09:00:25;97160.72;;;12.00;63.50
17054;BME280;8643;48.824;11.422;2023-04-27T09:02:54;97159.94;;;12.12;62.68
17054;BME280;8643;48.824;11.422;2023-04-27T09:05:23;97164.19;;;12.43;61.04
17054;BME280;8643;48.824;11.422;2023-04-27T09:07:59;97168.09;;;12.42;61.02
17054;BME280;8643;48.824;11.422;2023-04-27T09:10:43;97162.00;;;12.82;63.13
17054;BME280;8643;48.824;11.422;2023-04-27T09:13:13;97163.66;;;13.32;60.27
17054;BME280;8643;48.824;11.422;2023-04-27T09:15:43;97165.94;;;13.43;57.97
17054;BME280;8643;48.824;11.422;2023-04-27T09:18:17;97170.53;;;13.75;58.65
17054;BME280;8643;48.824;11.422;2023-04-27T09:20:47;97164.88;;;14.25;54.67
17054;BME280;8643;48.824;11.422;2023-04-27T09:23:25;97168.47;;;14.70;51.31
17054;BME280;8643;48.824;11.422;2023-04-27T09:25:55;97166.41;;;13.69;52.64
17054;BME280;8643;48.824;11.422;2023-04-27T09:28:27;97157.50;;;14.01;53.04
17054;BME280;8643;48.824;11.422;2023-04-27T09:30:58;97156.91;;;14.64;52.13
17054;BME280;8643;48.824;11.422;2023-04-27T09:33:28;97153.75;;;15.26;53.38
17054;BME280;8643;48.824;11.422;2023-04-27T09:35:59;97154.56;;;15.62;50.68
17054;BME280;8643;48.824;11.422;2023-04-27T09:38:29;97141.78;;;16.08;47.34
17054;BME280;8643;48.824;11.422;2023-04-27T09:40:58;97149.69;;;16.49;48.94
17054;BME280;8643;48.824;11.422;2023-04-27T09:43:30;97139.91;;;16.75;42.87
17054;BME280;8643;48.824;11.422;2023-04-27T09:45:59;97147.06;;;18.32;42.56
17054;BME280;8643;48.824;11.422;2023-04-27T09:48:28;97144.81;;;18.42;40.14
17054;BME280;8643;48.824;11.422;2023-04-27T09:50:57;97143.34;;;18.21;42.30
17054;BME280;8643;48.824;11.422;2023-04-27T09:53:33;97134.69;;;18.98;40.15
17054;BME280;8643;48.824;11.422;2023-04-27T09:56:22;97137.97;;;18.32;43.08
17054;BME280;8643;48.824;11.422;2023-04-27T09:59:16;97129.81;;;18.12;47.67
17054;BME280;8643;48.824;11.422;2023-04-27T10:01:53;97133.25;;;18.74;41.88
17054;BME280;8643;48.824;11.422;2023-04-27T10:04:47;97115.59;;;19.96;43.54
17054;BME280;8643;48.824;11.422;2023-04-27T10:07:21;97117.75;;;19.10;41.93
17054;BME280;8643;48.824;11.422;2023-04-27T10:09:50;97119.31;;;19.59;40.76
17054;BME280;8643;48.824;11.422;2023-04-27T10:12:21;97111.66;;;20.05;40.80
17054;BME280;8643;48.824;11.422;2023-04-27T10:14:54;97112.75;;;19.89;36.86
17054;BME280;8643;48.824;11.422;2023-04-27T10:17:30;97117.56;;;19.37;35.49
17054;BME280;8643;48.824;11.422;2023-04-27T10:20:01;97111.06;;;19.74;35.14
17054;BME280;8643;48.824;11.422;2023-04-27T10:22:38;97117.63;;;20.14;36.08
17054;BME280;8643;48.824;11.422;2023-04-27T10:25:17;97111.66;;;20.08;37.92
17054;BME280;8643;48.824;11.422;2023-04-27T10:27:50;97116.41;;;19.41;34.75
17054;BME280;8643;48.824;11.422;2023-04-27T10:30:23;97106.66;;;20.54;33.97
17054;BME280;8643;48.824;11.422;2023-04-27T10:32:54;97119.03;;;19.75;32.60
17054;BME280;8643;48.824;11.422;2023-04-27T10:35:32;97115.59;;;19.96;37.69
17054;BME280;8643;48.824;11.422;2023-04-27T10:38:07;97115.28;;;20.27;37.50
17054;BME280;8643;48.824;11.422;2023-04-27T10:40:36;97121.69;;;19.61;32.52
17054;BME280;8643;48.824;11.422;2023-04-27T10:43:09;97119.56;;;19.40;33.94
17054;BME280;8643;48.824;11.422;2023-04-27T10:45:40;97117.25;;;17.92;35.81
17054;BME280;8643;48.824;11.422;2023-04-27T10:48:11;97120.78;;;17.89;37.75
17054;BME280;8643;48.824;11.422;2023-04-27T10:50:41;97119.66;;;18.61;36.52
17054;BME280;8643;48.824;11.422;2023-04-27T10:53:11;97111.66;;;20.12;38.83
17054;BME280;8643;48.824;11.422;2023-04-27T10:55:40;97112.25;;;19.14;37.05
17054;BME280;8643;48.824;11.422;2023-04-27T10:58:09;97112.94;;;20.29;40.21
17054;BME280;8643;48.824;11.422;2023-04-27T11:00:40;97096.69;;;20.49;34.51
17054;BME280;8643;48.824;11.422;2023-04-27T11:03:14;97106.28;;;20.66;35.99
17054;BME280;8643;48.824;11.422;2023-04-27T11:05:45;97097.16;;;20.65;35.25
17054;BME280;8643;48.824;11.422;2023-04-27T11:08:15;97100.38;;;20.85;34.75
17054;BME280;8643;48.824;11.422;2023-04-27T11:10:46;97099.63;;;19.86;34.43
17054;BME280;8643;48.824;11.422;2023-04-27T11:13:21;97098.03;;;19.26;36.87
17054;BME280;8643;48.824;11.422;2023-04-27T11:15:52;97095.34;;;18.89;37.16
17054;BME280;8643;48.824;11.422;2023-04-27T11:18:25;97090.50;;;19.82;38.49
17054;BME280;8643;48.824;11.422;2023-04-27T11:21:08;97093.22;;;21.06;33.14
17054;BME280;8643;48.824;11.422;2023-04-27T11:23:38;97101.44;;;20.45;34.26
17054;BME280;8643;48.824;11.422;2023-04-27T11:26:11;97096.72;;;19.65;34.66
17054;BME280;8643;48.824;11.422;2023-04-27T11:28:41;97101.88;;;20.58;38.96
17054;BME280;8643;48.824;11.422;2023-04-27T11:31:11;97111.09;;;21.27;33.94
17054;BME280;8643;48.824;11.422;2023-04-27T11:33:47;97101.94;;;21.69;41.49
17054;BME280;8643;48.824;11.422;2023-04-27T11:36:16;97104.28;;;21.85;34.51
17054;BME280;8643;48.824;11.422;2023-04-27T11:38:45;97102.31;;;19.16;33.95
17054;BME280;8643;48.824;11.422;2023-04-27T11:41:14;97103.44;;;20.48;37.05
17054;BME280;8643;48.824;11.422;2023-04-27T11:43:45;97098.66;;;20.34;35.19
17054;BME280;8643;48.824;11.422;2023-04-27T11:46:20;97086.88;;;21.27;34.46
17054;BME280;8643;48.824;11.422;2023-04-27T11:48:49;97108.22;;;21.95;34.61
17054;BME280;8643;48.824;11.422;2023-04-27T11:51:17;97100.38;;;21.29;34.04
17054;BME280;8643;48.824;11.422;2023-04-27T11:53:47;97106.59;;;22.05;31.10
17054;BME280;8643;48.824;11.422;2023-04-27T11:56:17;97097.59;;;21.21;33.57
17054;BME280;8643;48.824;11.422;2023-04-27T11:58:46;97103.91;;;22.75;30.67
17054;BME280;8643;48.824;11.422;2023-04-27T12:01:14;97106.41;;;22.55;31.26
17054;BME280;8643;48.824;11.422;2023-04-27T12:04:02;97100.38;;;21.43;35.75
17054;BME280;8643;48.824;11.422;2023-04-27T12:06:31;97098.78;;;21.24;33.16
17054;BME280;8643;48.824;11.422;2023-04-27T12:09:00;97099.56;;;20.63;33.50
17054;BME280;8643;48.824;11.422;2023-04-27T12:11:30;97099.56;;;21.60;34.25
17054;BME280;8643;48.824;11.422;2023-04-27T12:14:00;97098.25;;;22.08;31.98
17054;BME280;8643;48.824;11.422;2023-04-27T12:16:29;97089.22;;;21.36;32.13
17054;BME280;8643;48.824;11.422;2023-04-27T12:18:58;97080.31;;;20.08;37.31
17054;BME280;8643;48.824;11.422;2023-04-27T12:21:28;97089.25;;;20.82;33.38
17054;BME280;8643;48.824;11.422;2023-04-27T12:23:56;97081.31;;;21.23;33.28
17054;BME280;8643;48.824;11.422;2023-04-27T12:26:25;97091.59;;;21.59;30.54
17054;BME280;8643;48.824;11.422;2023-04-27T12:28:53;97086.75;;;20.51;34.38
17054;BME280;8643;48.824;11.422;2023-04-27T12:31:23;97094.31;;;20.55;31.66
17054;BME280;8643;48.824;11.422;2023-04-27T12:33:54;97096.28;;;20.40;32.33
17054;BME280;8643;48.824;11.422;2023-04-27T12:36:23;97100.72;;;19.71;33.24
17054;BME280;8643;48.824;11.422;2023-04-27T12:38:58;97082.09;;;21.24;34.61
17054;BME280;8643;48.824;11.422;2023-04-27T12:41:28;97086.81;;;21.70;30.06
17054;BME280;8643;48.824;11.422;2023-04-27T12:43:56;97083.44;;;22.29;30.49
17054;BME280;8643;48.824;11.422;2023-04-27T12:46:25;97072.53;;;21.07;32.66
17054;BME280;8643;48.824;11.422;2023-04-27T12:48:55;97079.78;;;19.21;32.59
17054;BME280;8643;48.824;11.422;2023-04-27T12:51:24;97084.31;;;20.25;33.99
17054;BME280;8643;48.824;11.422;2023-04-27T12:53:56;97074.09;;;21.30;33.61
17054;BME280;8643;48.824;11.422;2023-04-27T12:56:27;97078.72;;;22.05;33.19
17054;BME280;8643;48.824;11.422;2023-04-27T12:58:56;97065.69;;;21.76;33.16
17054;BME280;8643;48.824;11.422;2023-04-27T13:01:25;97068.66;;;22.96;30.28
17054;BME280;8643;48.824;11.422;2023-04-27T13:03:58;97070.47;;;21.79;34.01
17054;BME280;8643;48.824;11.422;2023-04-27T13:06:29;97067.34;;;21.34;32.81
17054;BME280;8643;48.824;11.422;2023-04-27T13:08:59;97066.56;;;21.23;33.34
17054;BME280;8643;48.824;11.422;2023-04-27T13:11:28;97069.19;;;20.11;32.68
17054;BME280;8643;48.824;11.422;2023-04-27T13:13:57;97064.47;;;20.33;34.25
17054;BME280;8643;48.824;11.422;2023-04-27T13:16:26;97063.00;;;21.22;32.18
17054;BME280;8643;48.824;11.422;2023-04-27T13:18:55;97066.06;;;20.35;31.35